Terminal Aerodrome Forecast
Issued by NWS Northern Indiana

Home | Current Version | Previous Version | Graphics & Text | Print | Product List | Glossary On
Versions: 1 2 3 4 5 6 7 8 9 10 11 12 13 14 15 16 17 18 19
207
FTUS43 KIWX 191144
TAFFWA
TAF
KFWA 191144Z 1912/2012 18006KT 4SM -SHRA BR SCT015 BKN040 OVC080
     FM191500 11006KT P6SM OVC025
     FM192000 13006KT P6SM VCSH BKN035
     FM200100 VRB03KT P6SM BKN025
     FM200500 VRB02KT 2SM BR BKN005=

USA.gov is the U.S. government's official web portal to all federal, state and local government web resources and services.